sensor_id;sensor_type;location;lat;lon;timestamp;temperature;humidity
62424;DHT22;48463;43.604;3.872;2023-07-31T00:00:34;24.00;75.60
62424;DHT22;48463;43.604;3.872;2023-07-31T00:03:00;23.90;75.90
62424;DHT22;48463;43.604;3.872;2023-07-31T00:05:26;23.80;76.00
62424;DHT22;48463;43.604;3.872;2023-07-31T00:07:51;23.80;76.20
62424;DHT22;48463;43.604;3.872;2023-07-31T00:10:17;23.80;76.10
62424;DHT22;48463;43.604;3.872;2023-07-31T00:12:44;23.80;76.10
62424;DHT22;48463;43.604;3.872;2023-07-31T00:15:10;23.80;76.20
62424;DHT22;48463;43.604;3.872;2023-07-31T00:17:36;23.80;76.20
62424;DHT22;48463;43.604;3.872;2023-07-31T00:20:02;23.80;76.40
62424;DHT22;48463;43.604;3.872;2023-07-31T00:22:28;23.80;76.50
62424;DHT22;48463;43.604;3.872;2023-07-31T00:24:54;23.70;76.80
62424;DHT22;48463;43.604;3.872;2023-07-31T00:27:19;23.70;77.00
62424;DHT22;48463;43.604;3.872;2023-07-31T00:29:45;23.70;77.00
62424;DHT22;48463;43.604;3.872;2023-07-31T00:32:10;23.70;77.00
62424;DHT22;48463;43.604;3.872;2023-07-31T00:34:37;23.80;76.90
62424;DHT22;48463;43.604;3.872;2023-07-31T00:37:03;23.70;77.30
62424;DHT22;48463;43.604;3.872;2023-07-31T00:39:30;23.70;77.40
62424;DHT22;48463;43.604;3.872;2023-07-31T00:41:55;23.70;77.60
62424;DHT22;48463;43.604;3.872;2023-07-31T00:44:21;23.70;77.60
62424;DHT22;48463;43.604;3.872;2023-07-31T00:46:47;23.40;78.20
62424;DHT22;48463;43.604;3.872;2023-07-31T00:49:12;23.10;79.10
62424;DHT22;48463;43.604;3.872;2023-07-31T00:51:38;23.00;79.60
62424;DHT22;48463;43.604;3.872;2023-07-31T00:54:04;23.20;79.00
62424;DHT22;48463;43.604;3.872;2023-07-31T00:56:31;23.10;79.00
62424;DHT22;48463;43.604;3.872;2023-07-31T00:58:57;23.00;79.70
62424;DHT22;48463;43.604;3.872;2023-07-31T01:01:23;23.10;79.00
62424;DHT22;48463;43.604;3.872;2023-07-31T01:03:49;23.10;79.10
62424;DHT22;48463;43.604;3.872;2023-07-31T01:11:31;22.60;80.70
62424;DHT22;48463;43.604;3.872;2023-07-31T01:13:58;22.60;80.70
62424;DHT22;48463;43.604;3.872;2023-07-31T01:16:25;22.50;80.70
62424;DHT22;48463;43.604;3.872;2023-07-31T01:18:52;22.50;81.10
62424;DHT22;48463;43.604;3.872;2023-07-31T01:27:08;22.40;81.00
62424;DHT22;48463;43.604;3.872;2023-07-31T01:29:56;22.20;81.50
62424;DHT22;48463;43.604;3.872;2023-07-31T01:32:25;22.40;82.10
62424;DHT22;48463;43.604;3.872;2023-07-31T01:34:53;22.80;81.20
62424;DHT22;48463;43.604;3.872;2023-07-31T01:37:19;22.90;80.50
62424;DHT22;48463;43.604;3.872;2023-07-31T01:39:45;23.20;79.70
62424;DHT22;48463;43.604;3.872;2023-07-31T01:42:11;22.60;80.90
62424;DHT22;48463;43.604;3.872;2023-07-31T01:44:36;22.30;81.70
62424;DHT22;48463;43.604;3.872;2023-07-31T01:47:02;22.20;81.90
62424;DHT22;48463;43.604;3.872;2023-07-31T01:49:28;22.10;82.10
62424;DHT22;48463;43.604;3.872;2023-07-31T01:51:53;22.00;82.60
62424;DHT22;48463;43.604;3.872;2023-07-31T01:54:19;21.90;82.80
62424;DHT22;48463;43.604;3.872;2023-07-31T01:56:44;21.90;83.20
62424;DHT22;48463;43.604;3.872;2023-07-31T01:59:10;21.80;83.30
62424;DHT22;48463;43.604;3.872;2023-07-31T02:01:36;21.80;83.50
62424;DHT22;48463;43.604;3.872;2023-07-31T02:04:01;21.80;83.60
62424;DHT22;48463;43.604;3.872;2023-07-31T02:06:27;21.70;83.80
62424;DHT22;48463;43.604;3.872;2023-07-31T02:08:52;21.70;83.80
62424;DHT22;48463;43.604;3.872;2023-07-31T02:11:18;21.80;83.40
62424;DHT22;48463;43.604;3.872;2023-07-31T02:13:44;21.90;83.20
62424;DHT22;48463;43.604;3.872;2023-07-31T02:16:10;21.90;83.20
62424;DHT22;48463;43.604;3.872;2023-07-31T02:18:35;21.90;83.00
62424;DHT22;48463;43.604;3.872;2023-07-31T02:21:01;21.80;83.30
62424;DHT22;48463;43.604;3.872;2023-07-31T02:23:26;21.80;83.00
62424;DHT22;48463;43.604;3.872;2023-07-31T02:25:52;21.90;83.20
62424;DHT22;48463;43.604;3.872;2023-07-31T02:28:17;21.90;83.40
62424;DHT22;48463;43.604;3.872;2023-07-31T02:30:46;21.90;83.10
62424;DHT22;48463;43.604;3.872;2023-07-31T02:33:12;21.90;83.60
62424;DHT22;48463;43.604;3.872;2023-07-31T02:35:37;21.90;83.40
62424;DHT22;48463;43.604;3.872;2023-07-31T02:38:03;21.80;83.80
62424;DHT22;48463;43.604;3.872;2023-07-31T02:40:29;21.80;83.80
62424;DHT22;48463;43.604;3.872;2023-07-31T02:42:54;21.80;84.00
62424;DHT22;48463;43.604;3.872;2023-07-31T02:45:20;21.80;84.40
62424;DHT22;48463;43.604;3.872;2023-07-31T02:47:45;21.80;83.90
62424;DHT22;48463;43.604;3.872;2023-07-31T02:50:11;21.90;84.00
62424;DHT22;48463;43.604;3.872;2023-07-31T02:52:37;21.90;84.10
62424;DHT22;48463;43.604;3.872;2023-07-31T02:55:02;22.00;83.80
62424;DHT22;48463;43.604;3.872;2023-07-31T02:57:28;22.00;84.00
62424;DHT22;48463;43.604;3.872;2023-07-31T02:59:54;22.10;83.90
62424;DHT22;48463;43.604;3.872;2023-07-31T03:02:19;22.10;83.80
62424;DHT22;48463;43.604;3.872;2023-07-31T03:04:45;22.10;84.00
62424;DHT22;48463;43.604;3.872;2023-07-31T03:07:11;21.70;84.70
62424;DHT22;48463;43.604;3.872;2023-07-31T03:09:36;21.50;85.30
62424;DHT22;48463;43.604;3.872;2023-07-31T03:12:02;21.60;85.50
62424;DHT22;48463;43.604;3.872;2023-07-31T03:14:28;21.60;85.60
62424;DHT22;48463;43.604;3.872;2023-07-31T03:16:54;21.50;85.80
62424;DHT22;48463;43.604;3.872;2023-07-31T03:19:20;21.40;86.60
62424;DHT22;48463;43.604;3.872;2023-07-31T03:21:45;21.30;87.40
62424;DHT22;48463;43.604;3.872;2023-07-31T03:24:11;21.30;87.20
62424;DHT22;48463;43.604;3.872;2023-07-31T03:26:37;21.50;86.80
62424;DHT22;48463;43.604;3.872;2023-07-31T03:29:03;21.60;86.60
62424;DHT22;48463;43.604;3.872;2023-07-31T03:31:29;21.60;86.60
62424;DHT22;48463;43.604;3.872;2023-07-31T03:33:55;21.60;87.00
62424;DHT22;48463;43.604;3.872;2023-07-31T03:36:20;21.40;87.50
62424;DHT22;48463;43.604;3.872;2023-07-31T03:38:46;21.30;88.10
62424;DHT22;48463;43.604;3.872;2023-07-31T03:41:12;21.20;88.60
62424;DHT22;48463;43.604;3.872;2023-07-31T03:43:37;21.00;89.10
62424;DHT22;48463;43.604;3.872;2023-07-31T03:46:03;20.90;89.70
62424;DHT22;48463;43.604;3.872;2023-07-31T03:48:29;21.00;90.00
62424;DHT22;48463;43.604;3.872;2023-07-31T03:50:55;21.00;90.00
62424;DHT22;48463;43.604;3.872;2023-07-31T03:53:21;20.90;90.10
62424;DHT22;48463;43.604;3.872;2023-07-31T03:55:46;21.00;90.20
62424;DHT22;48463;43.604;3.872;2023-07-31T03:58:12;21.10;90.20
62424;DHT22;48463;43.604;3.872;2023-07-31T04:00:40;21.00;90.30
62424;DHT22;48463;43.604;3.872;2023-07-31T04:03:06;20.90;90.30
62424;DHT22;48463;43.604;3.872;2023-07-31T04:05:32;21.00;90.40
62424;DHT22;48463;43.604;3.872;2023-07-31T04:07:58;21.10;90.30
62424;DHT22;48463;43.604;3.872;2023-07-31T04:10:23;21.20;90.50
62424;DHT22;48463;43.604;3.872;2023-07-31T04:12:49;21.20;90.40
62424;DHT22;48463;43.604;3.872;2023-07-31T04:15:15;21.30;90.30
62424;DHT22;48463;43.604;3.872;2023-07-31T04:17:40;21.20;90.50
62424;DHT22;48463;43.604;3.872;2023-07-31T04:20:06;21.10;90.50
62424;DHT22;48463;43.604;3.872;2023-07-31T04:22:32;21.10;90.60
62424;DHT22;48463;43.604;3.872;2023-07-31T04:24:58;20.90;90.70
62424;DHT22;48463;43.604;3.872;2023-07-31T04:27:23;20.90;90.90
62424;DHT22;48463;43.604;3.872;2023-07-31T04:29:49;21.00;90.70
62424;DHT22;48463;43.604;3.872;2023-07-31T04:32:15;21.00;90.80
62424;DHT22;48463;43.604;3.872;2023-07-31T04:34:44;21.00;90.90
62424;DHT22;48463;43.604;3.872;2023-07-31T04:37:10;21.00;90.90
62424;DHT22;48463;43.604;3.872;2023-07-31T04:39:35;20.90;91.10
62424;DHT22;48463;43.604;3.872;2023-07-31T04:42:01;21.00;91.10
62424;DHT22;48463;43.604;3.872;2023-07-31T04:44:27;20.80;91.50
62424;DHT22;48463;43.604;3.872;2023-07-31T04:46:52;20.60;91.70
62424;DHT22;48463;43.604;3.872;2023-07-31T04:49:19;20.50;92.00
62424;DHT22;48463;43.604;3.872;2023-07-31T04:51:44;20.60;91.90
62424;DHT22;48463;43.604;3.872;2023-07-31T04:54:10;20.90;91.90
62424;DHT22;48463;43.604;3.872;2023-07-31T04:56:38;21.00;91.60
62424;DHT22;48463;43.604;3.872;2023-07-31T04:59:03;21.00;91.80
62424;DHT22;48463;43.604;3.872;2023-07-31T05:01:29;20.90;91.90
62424;DHT22;48463;43.604;3.872;2023-07-31T05:03:54;20.80;92.20
62424;DHT22;48463;43.604;3.872;2023-07-31T05:06:20;20.80;92.30
62424;DHT22;48463;43.604;3.872;2023-07-31T05:08:46;20.70;92.50
62424;DHT22;48463;43.604;3.872;2023-07-31T05:11:12;20.70;92.60
62424;DHT22;48463;43.604;3.872;2023-07-31T05:13:37;20.70;92.70
62424;DHT22;48463;43.604;3.872;2023-07-31T05:16:03;20.90;92.30
62424;DHT22;48463;43.604;3.872;2023-07-31T05:18:29;21.10;92.00
62424;DHT22;48463;43.604;3.872;2023-07-31T05:20:56;21.20;92.10
62424;DHT22;48463;43.604;3.872;2023-07-31T05:23:21;21.20;92.00
62424;DHT22;48463;43.604;3.872;2023-07-31T05:25:47;21.30;91.90
62424;DHT22;48463;43.604;3.872;2023-07-31T05:28:13;21.20;91.90
62424;DHT22;48463;43.604;3.872;2023-07-31T05:30:39;21.30;91.90
62424;DHT22;48463;43.604;3.872;2023-07-31T05:33:04;21.40;91.80
62424;DHT22;48463;43.604;3.872;2023-07-31T05:35:30;21.40;91.80
62424;DHT22;48463;43.604;3.872;2023-07-31T05:37:55;21.50;91.60
62424;DHT22;48463;43.604;3.872;2023-07-31T05:40:21;21.60;91.20
62424;DHT22;48463;43.604;3.872;2023-07-31T05:42:46;21.70;91.20
62424;DHT22;48463;43.604;3.872;2023-07-31T05:45:12;21.70;91.20
62424;DHT22;48463;43.604;3.872;2023-07-31T05:47:39;21.80;91.20
62424;DHT22;48463;43.604;3.872;2023-07-31T05:50:05;21.70;91.30
62424;DHT22;48463;43.604;3.872;2023-07-31T05:52:30;21.80;91.30
62424;DHT22;48463;43.604;3.872;2023-07-31T05:54:56;21.90;91.10
62424;DHT22;48463;43.604;3.872;2023-07-31T05:57:22;22.10;90.70
62424;DHT22;48463;43.604;3.872;2023-07-31T05:59:47;22.20;90.60
62424;DHT22;48463;43.604;3.872;2023-07-31T06:02:13;22.00;90.80
62424;DHT22;48463;43.604;3.872;2023-07-31T06:04:39;22.00;90.70
62424;DHT22;48463;43.604;3.872;2023-07-31T06:07:05;22.20;90.80
62424;DHT22;48463;43.604;3.872;2023-07-31T06:09:31;22.20;90.60
62424;DHT22;48463;43.604;3.872;2023-07-31T06:11:56;22.30;90.40
62424;DHT22;48463;43.604;3.872;2023-07-31T06:14:22;22.50;90.30
62424;DHT22;48463;43.604;3.872;2023-07-31T06:16:48;22.60;90.10
62424;DHT22;48463;43.604;3.872;2023-07-31T06:19:13;22.60;89.90
62424;DHT22;48463;43.604;3.872;2023-07-31T06:21:39;22.80;89.70
62424;DHT22;48463;43.604;3.872;2023-07-31T06:24:07;22.90;90.00
62424;DHT22;48463;43.604;3.872;2023-07-31T06:26:33;23.00;89.40
62424;DHT22;48463;43.604;3.872;2023-07-31T06:28:58;23.00;89.10
62424;DHT22;48463;43.604;3.872;2023-07-31T06:31:24;23.10;89.40
62424;DHT22;48463;43.604;3.872;2023-07-31T06:33:51;23.20;89.30
62424;DHT22;48463;43.604;3.872;2023-07-31T06:36:17;23.10;89.00
62424;DHT22;48463;43.604;3.872;2023-07-31T06:38:43;23.20;89.10
62424;DHT22;48463;43.604;3.872;2023-07-31T06:41:08;23.30;89.50
62424;DHT22;48463;43.604;3.872;2023-07-31T06:43:36;23.40;89.00
62424;DHT22;48463;43.604;3.872;2023-07-31T06:46:06;23.30;88.60
62424;DHT22;48463;43.604;3.872;2023-07-31T06:48:33;23.40;88.10
62424;DHT22;48463;43.604;3.872;2023-07-31T06:51:00;23.50;87.90
62424;DHT22;48463;43.604;3.872;2023-07-31T06:53:26;23.50;88.00
62424;DHT22;48463;43.604;3.872;2023-07-31T06:55:51;23.60;88.10
62424;DHT22;48463;43.604;3.872;2023-07-31T06:58:17;23.60;87.70
62424;DHT22;48463;43.604;3.872;2023-07-31T07:00:43;23.60;88.50
62424;DHT22;48463;43.604;3.872;2023-07-31T07:03:09;23.70;87.10
62424;DHT22;48463;43.604;3.872;2023-07-31T07:05:35;23.80;86.50
62424;DHT22;48463;43.604;3.872;2023-07-31T07:08:00;23.80;86.10
62424;DHT22;48463;43.604;3.872;2023-07-31T07:10:26;23.80;85.60
62424;DHT22;48463;43.604;3.872;2023-07-31T07:12:52;23.70;85.60
62424;DHT22;48463;43.604;3.872;2023-07-31T07:15:18;23.80;86.00
62424;DHT22;48463;43.604;3.872;2023-07-31T07:17:44;23.80;86.30
62424;DHT22;48463;43.604;3.872;2023-07-31T07:20:10;23.90;86.00
62424;DHT22;48463;43.604;3.872;2023-07-31T07:22:36;24.10;85.50
62424;DHT22;48463;43.604;3.872;2023-07-31T07:25:03;24.20;85.10
62424;DHT22;48463;43.604;3.872;2023-07-31T07:27:29;24.20;84.40
62424;DHT22;48463;43.604;3.872;2023-07-31T07:29:55;24.10;84.40
62424;DHT22;48463;43.604;3.872;2023-07-31T07:32:21;24.10;84.20
62424;DHT22;48463;43.604;3.872;2023-07-31T07:34:48;24.20;84.30
62424;DHT22;48463;43.604;3.872;2023-07-31T07:37:14;24.40;84.40
62424;DHT22;48463;43.604;3.872;2023-07-31T07:39:39;24.40;84.40
62424;DHT22;48463;43.604;3.872;2023-07-31T07:42:05;24.50;83.70
62424;DHT22;48463;43.604;3.872;2023-07-31T07:44:31;24.30;83.70
62424;DHT22;48463;43.604;3.872;2023-07-31T07:46:57;24.40;83.50
62424;DHT22;48463;43.604;3.872;2023-07-31T07:49:22;24.40;83.20
62424;DHT22;48463;43.604;3.872;2023-07-31T07:51:49;24.60;83.00
62424;DHT22;48463;43.604;3.872;2023-07-31T07:54:16;24.70;82.70
62424;DHT22;48463;43.604;3.872;2023-07-31T07:56:46;24.60;82.10
62424;DHT22;48463;43.604;3.872;2023-07-31T07:59:12;24.80;82.40
62424;DHT22;48463;43.604;3.872;2023-07-31T08:01:38;25.00;82.00
62424;DHT22;48463;43.604;3.872;2023-07-31T08:04:03;25.30;81.70
62424;DHT22;48463;43.604;3.872;2023-07-31T08:06:29;25.40;81.00
62424;DHT22;48463;43.604;3.872;2023-07-31T08:08:55;25.50;80.70
62424;DHT22;48463;43.604;3.872;2023-07-31T08:11:21;25.50;80.40
62424;DHT22;48463;43.604;3.872;2023-07-31T08:13:49;25.60;80.30
62424;DHT22;48463;43.604;3.872;2023-07-31T08:16:15;25.50;80.20
62424;DHT22;48463;43.604;3.872;2023-07-31T08:18:41;25.50;79.90
62424;DHT22;48463;43.604;3.872;2023-07-31T08:21:08;25.50;80.10
62424;DHT22;48463;43.604;3.872;2023-07-31T08:23:34;25.60;79.20
62424;DHT22;48463;43.604;3.872;2023-07-31T08:26:00;25.70;79.40
62424;DHT22;48463;43.604;3.872;2023-07-31T08:28:27;25.90;79.40
62424;DHT22;48463;43.604;3.872;2023-07-31T08:30:52;26.10;78.60
62424;DHT22;48463;43.604;3.872;2023-07-31T08:33:18;26.20;78.50
62424;DHT22;48463;43.604;3.872;2023-07-31T08:35:45;26.00;78.00
62424;DHT22;48463;43.604;3.872;2023-07-31T08:38:12;25.80;77.70
62424;DHT22;48463;43.604;3.872;2023-07-31T08:40:37;25.70;77.90
62424;DHT22;48463;43.604;3.872;2023-07-31T08:43:03;26.10;77.80
62424;DHT22;48463;43.604;3.872;2023-07-31T08:45:30;26.30;77.30
62424;DHT22;48463;43.604;3.872;2023-07-31T08:47:56;26.50;76.80
62424;DHT22;48463;43.604;3.872;2023-07-31T08:50:24;26.70;76.60
62424;DHT22;48463;43.604;3.872;2023-07-31T08:52:53;26.70;75.90
62424;DHT22;48463;43.604;3.872;2023-07-31T08:55:19;26.80;75.60
62424;DHT22;48463;43.604;3.872;2023-07-31T08:57:52;26.50;75.50
62424;DHT22;48463;43.604;3.872;2023-07-31T09:00:21;26.70;76.40
62424;DHT22;48463;43.604;3.872;2023-07-31T09:03:18;26.80;75.30
62424;DHT22;48463;43.604;3.872;2023-07-31T09:05:46;26.90;75.40
62424;DHT22;48463;43.604;3.872;2023-07-31T09:08:19;27.00;75.50
62424;DHT22;48463;43.604;3.872;2023-07-31T09:10:46;27.20;75.10
62424;DHT22;48463;43.604;3.872;2023-07-31T09:13:12;27.20;74.60
62424;DHT22;48463;43.604;3.872;2023-07-31T09:15:41;27.40;74.40
62424;DHT22;48463;43.604;3.872;2023-07-31T09:18:09;27.40;74.00
62424;DHT22;48463;43.604;3.872;2023-07-31T09:20:35;27.60;74.50
62424;DHT22;48463;43.604;3.872;2023-07-31T09:23:09;27.70;73.50
62424;DHT22;48463;43.604;3.872;2023-07-31T09:25:37;27.70;73.40
62424;DHT22;48463;43.604;3.872;2023-07-31T09:28:05;27.90;73.30
62424;DHT22;48463;43.604;3.872;2023-07-31T09:30:32;27.60;72.80
62424;DHT22;48463;43.604;3.872;2023-07-31T09:33:09;27.50;73.10
62424;DHT22;48463;43.604;3.872;2023-07-31T09:35:35;27.70;73.20
62424;DHT22;48463;43.604;3.872;2023-07-31T09:38:05;27.90;72.80
62424;DHT22;48463;43.604;3.872;2023-07-31T09:40:35;28.10;72.40
62424;DHT22;48463;43.604;3.872;2023-07-31T09:43:03;28.50;71.90
62424;DHT22;48463;43.604;3.872;2023-07-31T09:45:36;28.70;71.60
62424;DHT22;48463;43.604;3.872;2023-07-31T09:48:03;28.80;71.10
62424;DHT22;48463;43.604;3.872;2023-07-31T09:50:37;28.70;70.20
62424;DHT22;48463;43.604;3.872;2023-07-31T09:53:19;28.60;69.60
62424;DHT22;48463;43.604;3.872;2023-07-31T09:55:46;28.70;69.70
62424;DHT22;48463;43.604;3.872;2023-07-31T09:58:15;28.90;70.10
62424;DHT22;48463;43.604;3.872;2023-07-31T10:00:41;29.00;70.60
62424;DHT22;48463;43.604;3.872;2023-07-31T10:03:08;29.10;72.10
62424;DHT22;48463;43.604;3.872;2023-07-31T10:05:42;29.10;73.40
62424;DHT22;48463;43.604;3.872;2023-07-31T10:08:10;29.10;75.40
62424;DHT22;48463;43.604;3.872;2023-07-31T10:10:36;29.10;75.30
62424;DHT22;48463;43.604;3.872;2023-07-31T10:13:13;29.20;74.80
62424;DHT22;48463;43.604;3.872;2023-07-31T10:15:39;29.00;75.20
62424;DHT22;48463;43.604;3.872;2023-07-31T10:18:24;29.00;76.20
62424;DHT22;48463;43.604;3.872;2023-07-31T10:20:52;29.10;74.50
62424;DHT22;48463;43.604;3.872;2023-07-31T10:23:18;29.10;73.30
62424;DHT22;48463;43.604;3.872;2023-07-31T10:25:45;29.30;73.40
62424;DHT22;48463;43.604;3.872;2023-07-31T10:28:12;29.50;72.60
62424;DHT22;48463;43.604;3.872;2023-07-31T10:30:39;29.40;71.60
62424;DHT22;48463;43.604;3.872;2023-07-31T10:33:05;29.50;71.40
62424;DHT22;48463;43.604;3.872;2023-07-31T10:35:31;29.50;73.60
62424;DHT22;48463;43.604;3.872;2023-07-31T10:38:12;29.40;75.70
62424;DHT22;48463;43.604;3.872;2023-07-31T10:40:41;29.40;75.50
62424;DHT22;48463;43.604;3.872;2023-07-31T10:43:25;29.20;74.60
62424;DHT22;48463;43.604;3.872;2023-07-31T10:45:55;29.20;74.90
62424;DHT22;48463;43.604;3.872;2023-07-31T10:48:21;29.40;75.70
62424;DHT22;48463;43.604;3.872;2023-07-31T10:50:50;29.30;75.40
62424;DHT22;48463;43.604;3.872;2023-07-31T10:53:30;29.40;75.40
62424;DHT22;48463;43.604;3.872;2023-07-31T10:56:04;29.40;76.10
62424;DHT22;48463;43.604;3.872;2023-07-31T10:58:36;29.10;76.10
62424;DHT22;48463;43.604;3.872;2023-07-31T11:01:04;29.30;75.90
62424;DHT22;48463;43.604;3.872;2023-07-31T11:03:46;29.20;76.00
62424;DHT22;48463;43.604;3.872;2023-07-31T11:06:15;29.20;75.90
62424;DHT22;48463;43.604;3.872;2023-07-31T11:08:49;29.40;75.60
62424;DHT22;48463;43.604;3.872;2023-07-31T11:11:18;29.30;75.40
62424;DHT22;48463;43.604;3.872;2023-07-31T11:13:52;29.00;75.90
62424;DHT22;48463;43.604;3.872;2023-07-31T11:16:19;28.80;76.00
62424;DHT22;48463;43.604;3.872;2023-07-31T11:18:46;28.90;75.20
62424;DHT22;48463;43.604;3.872;2023-07-31T11:21:22;29.10;74.00
62424;DHT22;48463;43.604;3.872;2023-07-31T11:23:50;29.40;72.70
62424;DHT22;48463;43.604;3.872;2023-07-31T11:26:18;29.30;72.80
62424;DHT22;48463;43.604;3.872;2023-07-31T11:28:57;29.20;72.00
62424;DHT22;48463;43.604;3.872;2023-07-31T11:31:34;29.00;72.00
62424;DHT22;48463;43.604;3.872;2023-07-31T11:34:09;29.30;71.80
62424;DHT22;48463;43.604;3.872;2023-07-31T11:36:35;29.20;71.50
62424;DHT22;48463;43.604;3.872;2023-07-31T11:39:10;29.30;71.20
62424;DHT22;48463;43.604;3.872;2023-07-31T11:41:36;29.60;70.80
62424;DHT22;48463;43.604;3.872;2023-07-31T11:44:01;29.60;70.10
62424;DHT22;48463;43.604;3.872;2023-07-31T11:46:30;29.60;70.60
62424;DHT22;48463;43.604;3.872;2023-07-31T11:49:00;29.70;70.40
62424;DHT22;48463;43.604;3.872;2023-07-31T11:51:27;29.70;70.50
62424;DHT22;48463;43.604;3.872;2023-07-31T11:53:58;29.60;70.40
62424;DHT22;48463;43.604;3.872;2023-07-31T11:56:26;29.90;70.50
62424;DHT22;48463;43.604;3.872;2023-07-31T11:58:58;30.00;70.00
62424;DHT22;48463;43.604;3.872;2023-07-31T12:01:25;30.00;69.50
62424;DHT22;48463;43.604;3.872;2023-07-31T12:03:53;29.90;69.20
62424;DHT22;48463;43.604;3.872;2023-07-31T12:06:19;30.00;69.60
62424;DHT22;48463;43.604;3.872;2023-07-31T12:08:46;30.00;69.30
62424;DHT22;48463;43.604;3.872;2023-07-31T12:11:12;30.20;69.00
62424;DHT22;48463;43.604;3.872;2023-07-31T12:13:43;30.40;68.80
62424;DHT22;48463;43.604;3.872;2023-07-31T12:16:09;30.60;68.50
62424;DHT22;48463;43.604;3.872;2023-07-31T12:18:36;30.40;67.90
62424;DHT22;48463;43.604;3.872;2023-07-31T12:21:08;30.60;68.30
62424;DHT22;48463;43.604;3.872;2023-07-31T12:23:36;30.90;67.80
62424;DHT22;48463;43.604;3.872;2023-07-31T12:26:14;31.20;67.90
62424;DHT22;48463;43.604;3.872;2023-07-31T12:28:45;31.10;68.20
62424;DHT22;48463;43.604;3.872;2023-07-31T12:31:12;31.20;68.30
62424;DHT22;48463;43.604;3.872;2023-07-31T12:33:40;31.30;68.10
62424;DHT22;48463;43.604;3.872;2023-07-31T12:36:13;31.30;68.00
62424;DHT22;48463;43.604;3.872;2023-07-31T12:38:40;31.20;67.90
62424;DHT22;48463;43.604;3.872;2023-07-31T12:41:06;31.20;67.50
62424;DHT22;48463;43.604;3.872;2023-07-31T12:43:33;31.10;67.50
62424;DHT22;48463;43.604;3.872;2023-07-31T12:46:00;31.50;67.40
62424;DHT22;48463;43.604;3.872;2023-07-31T12:48:28;31.30;67.10
62424;DHT22;48463;43.604;3.872;2023-07-31T12:50:56;31.30;67.20
62424;DHT22;48463;43.604;3.872;2023-07-31T12:53:21;31.30;66.90
62424;DHT22;48463;43.604;3.872;2023-07-31T12:55:49;31.60;66.80
62424;DHT22;48463;43.604;3.872;2023-07-31T12:58:15;31.70;66.80
62424;DHT22;48463;43.604;3.872;2023-07-31T13:00:41;31.70;66.60
62424;DHT22;48463;43.604;3.872;2023-07-31T13:03:08;31.80;66.70
62424;DHT22;48463;43.604;3.872;2023-07-31T13:05:34;31.80;66.10
62424;DHT22;48463;43.604;3.872;2023-07-31T13:08:03;31.60;65.80
62424;DHT22;48463;43.604;3.872;2023-07-31T13:10:33;31.80;66.20
62424;DHT22;48463;43.604;3.872;2023-07-31T13:13:00;32.00;66.20
62424;DHT22;48463;43.604;3.872;2023-07-31T13:15:26;32.00;66.50
62424;DHT22;48463;43.604;3.872;2023-07-31T13:18:00;31.90;65.90
62424;DHT22;48463;43.604;3.872;2023-07-31T13:21:00;32.10;65.70
62424;DHT22;48463;43.604;3.872;2023-07-31T13:23:26;32.10;65.60
62424;DHT22;48463;43.604;3.872;2023-07-31T13:25:52;32.70;65.60
62424;DHT22;48463;43.604;3.872;2023-07-31T13:28:18;32.90;65.10
62424;DHT22;48463;43.604;3.872;2023-07-31T13:30:59;32.70;64.40
62424;DHT22;48463;43.604;3.872;2023-07-31T13:33:36;32.70;65.10
62424;DHT22;48463;43.604;3.872;2023-07-31T13:36:02;32.60;65.90
62424;DHT22;48463;43.604;3.872;2023-07-31T13:38:58;32.40;64.60
62424;DHT22;48463;43.604;3.872;2023-07-31T13:41:32;32.40;65.60
62424;DHT22;48463;43.604;3.872;2023-07-31T13:44:01;32.30;66.00
62424;DHT22;48463;43.604;3.872;2023-07-31T13:46:27;32.50;64.40
62424;DHT22;48463;43.604;3.872;2023-07-31T13:48:53;32.70;64.10
62424;DHT22;48463;43.604;3.872;2023-07-31T13:51:22;32.70;64.10
62424;DHT22;48463;43.604;3.872;2023-07-31T13:53:48;32.80;64.10
62424;DHT22;48463;43.604;3.872;2023-07-31T13:56:14;32.60;64.60
62424;DHT22;48463;43.604;3.872;2023-07-31T13:58:40;32.70;64.30
62424;DHT22;48463;43.604;3.872;2023-07-31T14:01:08;32.40;64.30
62424;DHT22;48463;43.604;3.872;2023-07-31T14:03:34;32.70;64.40
62424;DHT22;48463;43.604;3.872;2023-07-31T14:06:00;33.00;64.10
62424;DHT22;48463;43.604;3.872;2023-07-31T14:08:26;33.00;64.00
62424;DHT22;48463;43.604;3.872;2023-07-31T14:10:53;32.90;64.50
62424;DHT22;48463;43.604;3.872;2023-07-31T14:13:26;33.20;64.40
62424;DHT22;48463;43.604;3.872;2023-07-31T14:16:00;33.10;64.80
62424;DHT22;48463;43.604;3.872;2023-07-31T14:18:27;33.20;65.10
62424;DHT22;48463;43.604;3.872;2023-07-31T14:20:52;33.20;65.20
62424;DHT22;48463;43.604;3.872;2023-07-31T14:23:18;33.10;65.00
62424;DHT22;48463;43.604;3.872;2023-07-31T14:25:48;33.20;64.80
62424;DHT22;48463;43.604;3.872;2023-07-31T14:28:19;33.20;63.70
62424;DHT22;48463;43.604;3.872;2023-07-31T14:30:46;33.30;65.20
62424;DHT22;48463;43.604;3.872;2023-07-31T14:33:15;33.30;65.90
62424;DHT22;48463;43.604;3.872;2023-07-31T14:35:41;33.10;65.30
62424;DHT22;48463;43.604;3.872;2023-07-31T14:38:06;33.00;66.00
62424;DHT22;48463;43.604;3.872;2023-07-31T14:40:32;33.20;66.00
62424;DHT22;48463;43.604;3.872;2023-07-31T14:42:58;33.30;65.80
62424;DHT22;48463;43.604;3.872;2023-07-31T14:45:23;33.20;65.70
62424;DHT22;48463;43.604;3.872;2023-07-31T14:47:49;33.50;65.20
62424;DHT22;48463;43.604;3.872;2023-07-31T14:50:15;33.60;65.10
62424;DHT22;48463;43.604;3.872;2023-07-31T14:52:40;33.70;65.20
62424;DHT22;48463;43.604;3.872;2023-07-31T14:55:06;34.20;64.80
62424;DHT22;48463;43.604;3.872;2023-07-31T14:57:33;34.50;64.50
62424;DHT22;48463;43.604;3.872;2023-07-31T14:59:59;35.40;64.30
62424;DHT22;48463;43.604;3.872;2023-07-31T15:02:26;38.80;64.00
62424;DHT22;48463;43.604;3.872;2023-07-31T15:04:52;40.00;60.80
62424;DHT22;48463;43.604;3.872;2023-07-31T15:07:18;41.80;59.80
62424;DHT22;48463;43.604;3.872;2023-07-31T15:09:47;41.90;58.70
62424;DHT22;48463;43.604;3.872;2023-07-31T15:12:13;43.20;57.90
62424;DHT22;48463;43.604;3.872;2023-07-31T15:14:38;43.00;56.80
62424;DHT22;48463;43.604;3.872;2023-07-31T15:17:04;42.90;56.40
62424;DHT22;48463;43.604;3.872;2023-07-31T15:19:30;43.10;56.30
62424;DHT22;48463;43.604;3.872;2023-07-31T15:22:00;42.40;55.40
62424;DHT22;48463;43.604;3.872;2023-07-31T15:24:26;38.70;56.70
62424;DHT22;48463;43.604;3.872;2023-07-31T15:26:53;37.10;59.20
62424;DHT22;48463;43.604;3.872;2023-07-31T15:29:19;36.00;60.60
62424;DHT22;48463;43.604;3.872;2023-07-31T15:31:46;34.90;61.10
62424;DHT22;48463;43.604;3.872;2023-07-31T15:34:13;34.80;61.80
62424;DHT22;48463;43.604;3.872;2023-07-31T15:36:39;34.70;62.00
62424;DHT22;48463;43.604;3.872;2023-07-31T15:39:04;34.80;62.10
62424;DHT22;48463;43.604;3.872;2023-07-31T15:41:30;34.50;62.10